Time;durP1;ratioP1;P1;durP2;ratioP2;P2;SDS_P1;SDS_P2;PMS_P1;PMS_P2;Temp;Humidity;BMP_temperature;BMP_pressure;BME280_temperature;BME280_humidity;BME280_pressure;Samples;Min_cycle;Max_cycle;Signal;HPM_P1;HPM_P2
2022/07/28 00:00:46;;;;;;;;;2.50;2.50;;;;;18.52;44.13;100733.63;5014590;28;46231;-75
2022/07/28 00:03:11;;;;;;;;;2.75;2.75;;;;;18.47;44.13;100724.25;5012924;28;45725;-76
2022/07/28 00:05:37;;;;;;;;;4.00;4.00;;;;;18.46;44.34;100723.41;5014418;28;45361;-74
2022/07/28 00:08:02;;;;;;;;;3.00;3.00;;;;;18.45;44.48;100723.50;5014743;28;45561;-76
2022/07/28 00:10:28;;;;;;;;;0.75;0.75;;;;;18.38;44.78;100712.47;5017358;28;46543;-75
2022/07/28 00:12:54;;;;;;;;;2.75;2.75;;;;;18.35;44.76;100712.69;5017707;28;45317;-76
2022/07/28 00:15:19;;;;;;;;;4.25;4.25;;;;;18.36;44.66;100709.06;5050232;28;45220;-76
2022/07/28 00:17:44;;;;;;;;;3.25;3.25;;;;;18.33;44.66;100712.78;5017927;28;45498;-76
2022/07/28 00:20:10;;;;;;;;;4.00;4.00;;;;;18.35;44.68;100710.00;5016369;28;46908;-77
2022/07/28 00:22:41;;;;;;;;;5.50;5.50;;;;;18.32;44.77;100708.41;5016094;28;45261;-75
2022/07/28 00:25:07;;;;;;;;;2.25;2.25;;;;;18.35;44.93;100710.84;5049441;27;45353;-75
2022/07/28 00:27:32;;;;;;;;;5.25;5.25;;;;;18.32;44.95;100700.41;5017432;28;45355;-75
2022/07/28 00:29:57;;;;;;;;;3.00;3.00;;;;;18.30;45.26;100691.69;5017268;28;45423;-75
2022/07/28 00:32:23;;;;;;;;;2.00;2.00;;;;;18.33;44.94;100701.28;5016180;28;45437;-75
2022/07/28 00:34:49;;;;;;;;;2.25;2.25;;;;;18.27;45.11;100693.72;5017295;28;45356;-76
2022/07/28 00:37:15;;;;;;;;;2.25;2.25;;;;;18.31;45.17;100689.91;5017469;28;45490;-76
2022/07/28 00:39:41;;;;;;;;;3.25;3.25;;;;;18.29;45.29;100697.13;5016994;28;46422;-76
2022/07/28 00:42:06;;;;;;;;;7.75;7.25;;;;;18.27;45.25;100691.06;5016993;28;45193;-75
2022/07/28 00:44:32;;;;;;;;;4.75;4.75;;;;;18.21;45.21;100674.56;5017188;28;45357;-74
2022/07/28 00:46:57;;;;;;;;;3.25;3.25;;;;;18.23;45.30;100685.97;5017622;28;45327;-76
2022/07/28 00:49:22;;;;;;;;;4.00;4.00;;;;;18.19;45.22;100671.16;5017079;28;46090;-76
2022/07/28 00:51:48;;;;;;;;;2.00;2.00;;;;;18.17;45.50;100673.09;5016866;28;45390;-76
2022/07/28 00:54:13;;;;;;;;;1.25;1.25;;;;;18.14;45.44;100670.66;5015539;28;45405;-76
2022/07/28 00:56:39;;;;;;;;;2.75;2.75;;;;;18.12;45.60;100669.91;5017083;28;45574;-75
2022/07/28 00:59:04;;;;;;;;;2.00;2.00;;;;;18.07;45.45;100669.38;5016600;28;46103;-75
2022/07/28 01:01:29;;;;;;;;;2.50;2.50;;;;;18.04;45.99;100672.25;5016585;28;45403;-75
2022/07/28 01:03:58;;;;;;;;;2.00;2.00;;;;;18.00;45.71;100668.94;5017334;28;45560;-76
2022/07/28 01:06:48;;;;;;;;;2.75;2.75;;;;;18.02;45.79;100666.16;5017124;28;45379;-76
2022/07/28 01:09:53;;;;;;;;;3.00;3.00;;;;;17.97;45.92;100663.81;5014841;28;48420;-74
2022/07/28 01:12:39;;;;;;;;;3.00;3.00;;;;;17.92;46.00;100655.28;5016567;28;45462;-75
2022/07/28 01:15:22;;;;;;;;;3.25;3.25;;;;;17.77;46.21;100633.25;5016421;28;45444;-76
2022/07/28 01:17:58;;;;;;;;;3.25;3.25;;;;;17.89;46.49;100655.50;5016469;28;45309;-76
2022/07/28 01:20:30;;;;;;;;;2.00;2.00;;;;;17.85;46.38;100646.03;5016394;28;46809;-76
2022/07/28 01:23:11;;;;;;;;;3.00;3.00;;;;;17.88;46.40;100643.16;5016505;28;45271;-75
2022/07/28 01:26:06;;;;;;;;;2.50;2.50;;;;;17.85;46.49;100646.03;5016196;28;45364;-76
2022/07/28 01:29:02;;;;;;;;;3.50;2.00;;;;;17.86;46.48;100656.56;5016541;28;45274;-77
2022/07/28 01:31:36;;;;;;;;;2.25;2.25;;;;;17.86;46.18;100653.91;5015900;28;45439;-75
2022/07/28 01:34:08;;;;;;;;;3.00;3.00;;;;;17.85;46.51;100651.38;5016394;28;45482;-78
2022/07/28 01:36:57;;;;;;;;;2.00;2.00;;;;;17.87;46.51;100652.09;5017828;28;45336;-77
2022/07/28 01:39:28;;;;;;;;;2.00;2.00;;;;;17.89;46.36;100653.69;5018846;28;45271;-76
2022/07/28 01:41:57;;;;;;;;;3.00;3.00;;;;;17.88;46.44;100646.66;5018445;28;46168;-74
2022/07/28 01:44:25;;;;;;;;;1.00;1.00;;;;;17.91;46.46;100645.63;5017400;28;45273;-76
2022/07/28 01:46:51;;;;;;;;;2.50;2.50;;;;;17.87;46.66;100644.13;5016219;28;45359;-75
2022/07/28 01:49:20;;;;;;;;;2.00;2.00;;;;;17.86;46.47;100643.25;5016606;28;45417;-76
2022/07/28 01:51:46;;;;;;;;;2.00;2.00;;;;;17.90;46.48;100655.38;5016036;28;45452;-76
2022/07/28 01:54:13;;;;;;;;;1.75;1.75;;;;;17.85;46.35;100643.38;5016144;28;45351;-77
2022/07/28 01:56:40;;;;;;;;;2.25;2.25;;;;;17.85;46.24;100644.22;5015841;28;45352;-75
2022/07/28 01:59:10;;;;;;;;;1.75;1.75;;;;;17.87;46.37;100639.63;5016093;28;45232;-76
2022/07/28 02:01:40;;;;;;;;;2.25;2.25;;;;;17.81;46.41;100632.97;5015828;28;46130;-75
2022/07/28 02:04:08;;;;;;;;;1.75;1.75;;;;;17.83;46.50;100643.47;5015864;28;45279;-75
2022/07/28 02:06:35;;;;;;;;;2.50;2.50;;;;;17.82;46.53;100639.13;5016198;28;45249;-74
2022/07/28 02:09:04;;;;;;;;;3.00;3.00;;;;;17.85;46.26;100638.06;5017122;28;45454;-75
2022/07/28 02:11:40;;;;;;;;;1.00;1.00;;;;;17.86;46.42;100639.75;5015896;28;45535;-75
2022/07/28 02:14:18;;;;;;;;;0.50;0.50;;;;;17.88;46.44;100633.34;5015965;28;45202;-76
2022/07/28 02:16:48;;;;;;;;;2.25;2.25;;;;;17.90;46.29;100631.44;5015313;28;45269;-74
2022/07/28 02:19:17;;;;;;;;;3.00;3.00;;;;;17.86;46.47;100619.31;5047715;28;45538;-76
2022/07/28 02:21:46;;;;;;;;;2.00;2.00;;;;;17.96;46.08;100628.34;5015120;28;46213;-75
2022/07/28 02:24:12;;;;;;;;;2.75;2.75;;;;;18.00;46.30;100626.38;5015259;28;45432;-75
2022/07/28 02:26:45;;;;;;;;;1.00;1.00;;;;;18.00;46.14;100617.47;5015407;28;45316;-74
2022/07/28 02:29:12;;;;;;;;;4.00;4.00;;;;;17.96;46.38;100611.53;5015781;28;45788;-76
2022/07/28 02:31:50;;;;;;;;;2.00;2.00;;;;;17.99;46.64;100616.66;5014812;28;45430;-75
2022/07/28 02:34:20;;;;;;;;;2.75;2.75;;;;;18.00;46.31;100620.16;5015170;28;45388;-74
2022/07/28 02:36:52;;;;;;;;;2.00;2.00;;;;;17.98;46.34;100616.75;5013859;28;45524;-76
2022/07/28 02:39:23;;;;;;;;;3.25;3.25;;;;;17.86;46.40;100598.03;5015484;28;45346;-76
2022/07/28 02:41:59;;;;;;;;;2.50;2.50;;;;;17.99;46.49;100615.78;5014848;28;45750;-75
2022/07/28 02:44:30;;;;;;;;;2.00;2.00;;;;;17.98;46.46;100611.41;5013583;28;45335;-76
2022/07/28 02:46:57;;;;;;;;;2.75;2.75;;;;;18.00;46.49;100610.41;5015766;28;45490;-76
2022/07/28 02:49:29;;;;;;;;;2.00;2.00;;;;;18.02;46.15;100607.59;5015555;28;45478;-75
2022/07/28 02:51:57;;;;;;;;;2.00;2.00;;;;;18.04;46.41;100609.22;5015097;28;46328;-75
2022/07/28 02:54:26;;;;;;;;;1.50;1.50;;;;;17.95;46.45;100594.72;5015050;28;45529;-75
2022/07/28 02:56:53;;;;;;;;;2.75;2.75;;;;;18.05;46.37;100615.41;5015150;28;45402;-75
2022/07/28 02:59:20;;;;;;;;;2.00;2.00;;;;;18.07;46.39;100613.50;5013783;28;45492;-72
2022/07/28 03:01:47;;;;;;;;;2.50;2.50;;;;;18.03;46.37;100599.53;5014880;28;45441;-78
2022/07/28 03:04:14;;;;;;;;;2.00;2.00;;;;;18.00;46.54;100598.84;5015066;28;45489;-76
2022/07/28 03:06:40;;;;;;;;;1.00;1.00;;;;;18.03;46.24;100604.03;5015337;28;45378;-73
2022/07/28 03:09:09;;;;;;;;;1.00;1.00;;;;;18.07;46.61;100602.84;5015050;28;45334;-71
2022/07/28 03:11:34;;;;;;;;;1.00;1.00;;;;;18.05;46.44;100605.59;5014733;28;45428;-73
2022/07/28 03:14:00;;;;;;;;;2.25;2.25;;;;;18.05;46.54;100604.75;5015135;28;45336;-73
2022/07/28 03:16:25;;;;;;;;;4.00;4.00;;;;;18.10;46.24;100607.94;5013232;28;45367;-73
2022/07/28 03:18:51;;;;;;;;;2.00;2.00;;;;;18.11;46.13;100604.31;5014921;28;45349;-72
2022/07/28 03:21:16;;;;;;;;;4.25;4.25;;;;;18.10;46.38;100608.78;5014528;28;45358;-72
2022/07/28 03:23:46;;;;;;;;;3.00;3.00;;;;;18.14;46.67;100609.41;5014643;28;45320;-72
2022/07/28 03:26:18;;;;;;;;;3.00;3.00;;;;;18.15;46.53;100616.44;5013444;28;45399;-72
2022/07/28 03:28:45;;;;;;;;;2.75;2.75;;;;;18.15;46.55;100621.78;5015422;28;45227;-74
2022/07/28 03:31:13;;;;;;;;;4.00;4.00;;;;;18.14;46.65;100611.22;5015738;28;45434;-74
2022/07/28 03:33:39;;;;;;;;;3.25;3.25;;;;;18.14;46.66;100612.09;5018940;28;45225;-76
2022/07/28 03:36:11;;;;;;;;;4.00;4.00;;;;;18.08;46.78;100612.53;5018080;28;45455;-73
2022/07/28 03:38:42;;;;;;;;;5.25;5.25;;;;;18.04;46.93;100603.06;5022635;28;45387;-71
2022/07/28 03:41:10;;;;;;;;;4.00;4.00;;;;;18.02;46.80;100604.94;5015125;28;46716;-76
2022/07/28 03:43:36;;;;;;;;;4.00;4.00;;;;;18.03;46.97;100609.34;5014744;27;45359;-74
2022/07/28 03:46:02;;;;;;;;;4.00;4.00;;;;;17.98;46.79;100598.97;5018328;28;45185;-76
2022/07/28 03:48:32;;;;;;;;;3.75;3.75;;;;;18.00;47.01;100604.19;5018143;28;45369;-75
2022/07/28 03:50:58;;;;;;;;;5.25;4.00;;;;;17.96;47.19;100607.06;5017826;28;45599;-77
2022/07/28 03:53:28;;;;;;;;;4.50;4.50;;;;;17.93;47.10;100603.78;5017789;28;45339;-73
2022/07/28 03:55:53;;;;;;;;;4.00;4.00;;;;;17.95;47.18;100605.34;5018013;28;45269;-74
2022/07/28 03:58:24;;;;;;;;;3.50;3.50;;;;;17.94;47.21;100608.97;5017927;28;45543;-74
2022/07/28 04:00:50;;;;;;;;;3.25;3.25;;;;;17.90;47.59;100596.84;5017566;28;45743;-73
2022/07/28 04:03:17;;;;;;;;;4.25;4.25;;;;;17.94;47.54;100606.31;5015969;28;45324;-75
2022/07/28 04:05:43;;;;;;;;;5.00;5.00;;;;;17.95;47.19;100607.19;5017565;28;45277;-71
2022/07/28 04:08:08;;;;;;;;;5.00;5.00;;;;;17.91;47.36;100603.03;5017529;28;45252;-73
2022/07/28 04:10:34;;;;;;;;;5.50;5.50;;;;;17.89;47.30;100603.13;5017694;28;45368;-74
2022/07/28 04:12:59;;;;;;;;;6.50;6.50;;;;;17.87;47.52;100606.88;5017504;28;45399;-75
2022/07/28 04:15:27;;;;;;;;;6.00;6.00;;;;;17.85;47.72;100604.31;5017485;28;45482;-72
2022/07/28 04:17:54;;;;;;;;;6.75;6.75;;;;;17.82;47.56;100609.84;5017602;28;45414;-75
2022/07/28 04:20:20;;;;;;;;;6.00;6.00;;;;;17.77;47.66;100607.53;5015759;28;47366;-76
2022/07/28 04:22:47;;;;;;;;;7.00;7.00;;;;;17.78;47.51;100603.91;5017571;28;45277;-73
2022/07/28 04:25:14;;;;;;;;;7.75;7.75;;;;;17.81;47.66;100611.66;5016143;28;45345;-73
2022/07/28 04:27:43;;;;;;;;;6.75;6.75;;;;;17.72;47.85;100599.03;5017491;28;45496;-75
2022/07/28 04:30:12;;;;;;;;;6.00;6.00;;;;;17.75;47.81;100600.59;5017135;28;45388;-76
2022/07/28 04:32:39;;;;;;;;;5.00;5.00;;;;;17.72;48.14;100603.47;5017320;28;45346;-75
2022/07/28 04:35:07;;;;;;;;;4.25;4.25;;;;;17.67;48.24;100596.66;5017626;28;45412;-74
2022/07/28 04:37:33;;;;;;;;;5.00;5.00;;;;;17.70;48.12;100600.94;5016185;28;45450;-73
2022/07/28 04:39:58;;;;;;;;;3.25;3.25;;;;;17.64;48.09;100594.22;5016867;28;45952;-74
2022/07/28 04:42:24;;;;;;;;;4.00;4.00;;;;;17.72;48.16;100601.69;5016966;28;45324;-74
2022/07/28 04:44:50;;;;;;;;;4.50;4.50;;;;;17.72;48.27;100595.50;5017219;28;45308;-72
2022/07/28 04:47:15;;;;;;;;;5.25;5.25;;;;;17.71;48.23;100589.34;5017435;28;45521;-73
2022/07/28 04:49:41;;;;;;;;;4.00;4.00;;;;;17.75;48.03;100596.16;5017228;28;46122;-76
2022/07/28 04:52:07;;;;;;;;;3.00;3.00;;;;;17.77;48.21;100599.53;5017265;28;45286;-73
2022/07/28 04:54:33;;;;;;;;;5.25;5.25;;;;;17.73;48.28;100590.09;5015673;28;45254;-72
2022/07/28 04:56:59;;;;;;;;;5.50;5.50;;;;;17.77;48.13;100590.69;5017186;28;45577;-76
2022/07/28 04:59:24;;;;;;;;;7.00;7.00;;;;;17.75;48.11;100585.50;5016791;28;46622;-73
2022/07/28 05:01:50;;;;;;;;;3.75;3.75;;;;;17.80;48.13;100591.34;5016620;28;45532;-72
2022/07/28 05:04:15;;;;;;;;;6.75;6.75;;;;;17.81;48.18;100586.84;5017129;28;45406;-75
2022/07/28 05:06:41;;;;;;;;;5.50;5.50;;;;;17.85;48.01;100595.50;5017738;28;45313;-77
2022/07/28 05:09:06;;;;;;;;;4.00;4.00;;;;;17.84;48.11;100596.44;5018248;28;48096;-77
2022/07/28 05:11:31;;;;;;;;;4.00;4.00;;;;;17.83;48.15;100590.25;5017974;28;45302;-73
2022/07/28 05:13:57;;;;;;;;;6.00;5.25;;;;;17.89;48.20;100595.16;5018984;28;45250;-74
2022/07/28 05:16:22;;;;;;;;;4.50;4.50;;;;;17.92;48.14;100584.28;5018565;28;45535;-72
2022/07/28 05:18:47;;;;;;;;;3.75;3.75;;;;;17.94;48.22;100595.66;5017326;28;45403;-74
2022/07/28 05:21:13;;;;;;;;;5.50;5.50;;;;;17.99;48.45;100595.34;5016822;28;45427;-75
2022/07/28 05:23:38;;;;;;;;;4.75;4.75;;;;;18.05;48.05;100594.94;5017258;28;45435;-73
2022/07/28 05:26:05;;;;;;;;;5.00;5.00;;;;;18.15;48.20;100607.59;5017677;28;45514;-72
2022/07/28 05:28:32;;;;;;;;;5.50;5.50;;;;;18.22;47.89;100593.75;4999545;28;46632;-72
2022/07/28 05:30:57;;;;;;;;;5.25;4.75;;;;;18.30;47.49;100598.50;5018114;28;45264;-77
2022/07/28 05:33:23;;;;;;;;;4.75;4.75;;;;;18.35;47.55;100601.69;5019866;28;45240;-77
2022/07/28 05:35:53;;;;;;;;;5.50;5.50;;;;;18.44;47.76;100599.31;5016371;28;45222;-76
2022/07/28 05:38:19;;;;;;;;;4.00;4.00;;;;;18.51;47.59;100595.22;5016190;28;45589;-77
2022/07/28 05:40:46;;;;;;;;;4.25;4.25;;;;;18.56;47.12;100592.22;5014782;28;45375;-77
2022/07/28 05:43:12;;;;;;;;;10.00;10.00;;;;;18.62;47.10;100592.66;5016356;28;45297;-77
2022/07/28 05:45:37;;;;;;;;;5.00;5.00;;;;;18.74;47.14;100598.03;5016583;28;45549;-75
2022/07/28 05:48:03;;;;;;;;;4.00;4.00;;;;;18.82;46.79;100600.97;5015941;28;46453;-72
2022/07/28 05:50:29;;;;;;;;;4.00;4.00;;;;;18.82;47.31;100604.47;5016120;28;45235;-72
2022/07/28 05:52:54;;;;;;;;;7.50;6.75;;;;;18.86;46.51;100589.09;5016172;28;45274;-74
2022/07/28 05:55:19;;;;;;;;;6.50;6.50;;;;;18.89;46.62;100593.34;5016103;28;45523;-73
2022/07/28 05:57:48;;;;;;;;;6.50;6.50;;;;;18.87;47.06;100587.28;5015556;28;45720;-75
2022/07/28 06:00:16;;;;;;;;;4.50;4.50;;;;;18.90;46.76;100593.25;5014174;28;45742;-73
2022/07/28 06:02:47;;;;;;;;;4.00;4.00;;;;;18.95;46.65;100593.75;5015446;28;45279;-71
2022/07/28 06:05:13;;;;;;;;;4.75;4.75;;;;;18.86;46.48;100573.13;5015944;28;45386;-72
2022/07/28 06:07:39;;;;;;;;;4.00;4.00;;;;;19.03;46.51;100593.16;5014855;28;45943;-72
2022/07/28 06:10:05;;;;;;;;;4.50;4.50;;;;;19.08;46.54;100593.66;5016175;28;45293;-73
2022/07/28 06:12:30;;;;;;;;;3.75;3.75;;;;;19.14;46.31;100595.03;5015762;28;45335;-74
2022/07/28 06:14:56;;;;;;;;;4.50;4.50;;;;;19.21;45.80;100598.94;5015563;28;45350;-74
2022/07/28 06:17:21;;;;;;;;;5.25;5.25;;;;;19.34;46.27;100604.19;5015281;28;46263;-72
2022/07/28 06:19:46;;;;;;;;;5.50;5.50;;;;;19.38;45.58;100600.31;5015931;28;45360;-75
2022/07/28 06:22:14;;;;;;;;;4.25;4.25;;;;;19.47;46.17;100604.06;5015850;28;45366;-74
2022/07/28 06:24:40;;;;;;;;;4.75;4.75;;;;;19.62;46.02;100601.19;5016047;28;45177;-77
2022/07/28 06:27:05;;;;;;;;;5.50;5.50;;;;;19.66;45.39;100598.16;5016215;28;46458;-75
2022/07/28 06:29:31;;;;;;;;;6.00;6.00;;;;;19.78;45.85;100604.34;5015197;28;45392;-73
2022/07/28 06:31:57;;;;;;;;;5.50;5.00;;;;;19.88;45.14;100604.47;5009228;28;45630;-70
2022/07/28 06:34:22;;;;;;;;;4.75;4.75;;;;;20.02;44.96;100607.88;5013095;28;45855;-72
2022/07/28 06:36:47;;;;;;;;;5.00;5.00;;;;;20.11;44.91;100596.47;5014548;28;45872;-72
2022/07/28 06:39:13;;;;;;;;;3.25;3.25;;;;;20.13;44.79;100597.19;5014111;28;45834;-72
2022/07/28 06:41:42;;;;;;;;;3.75;3.75;;;;;20.10;44.27;100600.97;5014540;28;45339;-72
2022/07/28 06:44:08;;;;;;;;;4.50;4.00;;;;;20.11;44.61;100600.00;5014517;28;45433;-82
2022/07/28 06:46:34;;;;;;;;;8.75;8.75;;;;;20.11;44.86;100597.31;5013319;28;46498;-72
2022/07/28 06:48:59;;;;;;;;;6.00;6.00;;;;;20.16;44.45;100602.31;5014154;28;45342;-74
2022/07/28 06:51:25;;;;;;;;;5.75;5.75;;;;;20.11;45.05;100593.78;5013070;28;45835;-73
2022/07/28 06:53:51;;;;;;;;;4.00;4.00;;;;;20.15;44.42;100595.28;5014933;28;45383;-79
2022/07/28 06:56:16;;;;;;;;;4.50;4.50;;;;;20.14;44.12;100594.41;5013685;28;45706;-73
2022/07/28 06:58:42;;;;;;;;;4.50;4.50;;;;;20.23;43.91;100603.50;5010731;28;45543;-80
2022/07/28 07:01:07;;;;;;;;;4.25;4.25;;;;;20.25;44.29;100616.72;5011112;28;45874;-77
2022/07/28 07:03:33;;;;;;;;;4.50;4.50;;;;;20.32;44.16;100611.75;5013866;28;46164;-72
2022/07/28 07:05:58;;;;;;;;;3.50;3.50;;;;;20.34;44.47;100607.13;5013493;28;45405;-76
2022/07/28 07:08:24;;;;;;;;;3.50;3.50;;;;;20.36;44.15;100606.00;5012599;28;45559;-75
2022/07/28 07:10:49;;;;;;;;;5.50;5.50;;;;;20.42;44.06;100610.84;5013472;28;45781;-74
2022/07/28 07:13:15;;;;;;;;;7.00;7.00;;;;;20.46;44.52;100611.47;5013704;28;45262;-78
2022/07/28 07:15:40;;;;;;;;;5.00;5.00;;;;;20.55;44.14;100615.19;5012657;28;46771;-77
2022/07/28 07:18:05;;;;;;;;;6.25;6.25;;;;;20.53;44.24;100611.78;5014607;28;45273;-73
2022/07/28 07:20:31;;;;;;;;;6.25;6.25;;;;;20.68;44.42;100620.38;5017680;28;45529;-73
2022/07/28 07:22:56;;;;;;;;;5.50;5.25;;;;;20.75;43.86;100620.75;5024526;28;45510;-74
2022/07/28 07:25:22;;;;;;;;;6.50;6.50;;;;;20.78;43.62;100623.16;5015772;28;46244;-74
2022/07/28 07:27:47;;;;;;;;;7.50;7.50;;;;;20.85;43.77;100616.34;5004589;28;45324;-73
2022/07/28 07:30:14;;;;;;;;;6.75;6.75;;;;;20.95;43.92;100619.09;5009813;28;45446;-70
2022/07/28 07:32:40;;;;;;;;;6.00;6.00;;;;;20.92;42.88;100614.88;5016577;28;45357;-72
2022/07/28 07:35:06;;;;;;;;;7.00;7.00;;;;;20.98;43.38;100610.81;5015602;28;45303;-71
2022/07/28 07:37:32;;;;;;;;;2.75;2.75;;;;;21.06;42.75;100613.69;5014194;28;45423;-72
2022/07/28 07:40:02;;;;;;;;;8.50;8.50;;;;;21.02;43.15;100612.25;5015558;28;45483;-71
2022/07/28 07:42:27;;;;;;;;;4.75;4.75;;;;;21.16;43.02;100611.94;5015695;28;45344;-72
2022/07/28 07:44:53;;;;;;;;;6.00;6.00;;;;;21.23;42.85;100609.59;5004579;28;46453;-70
2022/07/28 07:47:19;;;;;;;;;2.75;2.75;;;;;21.36;42.64;100609.41;5010937;28;45358;-71
2022/07/28 07:49:44;;;;;;;;;7.00;6.00;;;;;21.43;42.77;100607.91;5000739;28;45462;-71
2022/07/28 07:52:09;;;;;;;;;4.75;4.75;;;;;21.55;42.33;100610.50;5011747;28;45561;-72
2022/07/28 07:54:35;;;;;;;;;8.25;8.25;;;;;21.57;42.29;100616.56;5005261;28;45619;-72
2022/07/28 07:57:00;;;;;;;;;5.50;5.50;;;;;21.58;42.20;100618.25;5002661;28;45511;-72
2022/07/28 07:59:26;;;;;;;;;5.00;5.00;;;;;21.56;41.78;100614.88;5012773;28;45472;-71
2022/07/28 08:01:53;;;;;;;;;5.00;5.00;;;;;21.65;41.88;100608.75;5000002;28;45407;-72
2022/07/28 08:04:23;;;;;;;;;6.00;6.00;;;;;21.63;41.63;100596.44;5008823;28;47142;-71
2022/07/28 08:06:49;;;;;;;;;5.00;5.00;;;;;21.74;41.27;100625.84;5006694;28;45352;-72
2022/07/28 08:09:16;;;;;;;;;2.50;2.50;;;;;21.69;41.59;100615.53;5002697;28;45515;-72
2022/07/28 08:11:41;;;;;;;;;6.25;6.25;;;;;21.82;41.71;100611.78;5013416;28;45335;-71
2022/07/28 08:14:07;;;;;;;;;6.00;6.00;;;;;22.01;41.25;100614.53;5001507;28;45809;-72
2022/07/28 08:16:32;;;;;;;;;5.00;5.00;;;;;22.14;40.87;100613.44;5006208;28;45438;-71
2022/07/28 08:18:58;;;;;;;;;5.25;5.25;;;;;22.24;40.88;100614.31;5008909;28;45299;-73
2022/07/28 08:21:24;;;;;;;;;6.75;6.75;;;;;22.32;40.45;100606.47;5017253;28;45381;-72
2022/07/28 08:23:51;;;;;;;;;5.00;5.00;;;;;22.36;40.72;100607.00;4999958;28;46728;-72
2022/07/28 08:26:16;;;;;;;;;6.50;4.75;;;;;22.38;40.41;100604.22;5008883;28;45734;-72
2022/07/28 08:28:42;;;;;;;;;10.75;10.50;;;;;22.49;40.40;100596.06;4997592;28;45272;-72
2022/07/28 08:31:07;;;;;;;;;8.25;6.75;;;;;22.60;40.27;100598.63;5003250;28;45166;-71
2022/07/28 08:33:32;;;;;;;;;7.00;7.00;;;;;22.71;39.83;100594.09;5015187;28;45381;-75
2022/07/28 08:35:59;;;;;;;;;15.00;15.00;;;;;22.87;39.86;100597.06;5016986;28;45419;-73
2022/07/28 08:38:24;;;;;;;;;6.00;6.00;;;;;23.00;39.57;100593.25;5017932;28;45213;-80
2022/07/28 08:40:52;;;;;;;;;5.75;5.75;;;;;23.11;39.69;100587.72;5017680;28;45622;-78
2022/07/28 08:43:33;;;;;;;;;7.00;7.00;;;;;23.26;38.99;100595.34;5016946;28;45482;-78
2022/07/28 08:46:00;;;;;;;;;5.75;5.75;;;;;23.36;38.90;100604.25;5017924;28;45405;-76
2022/07/28 08:48:30;;;;;;;;;4.00;4.00;;;;;23.41;38.64;100604.66;5017554;28;45297;-77
2022/07/28 08:51:03;;;;;;;;;7.00;7.00;;;;;23.42;38.75;100597.44;5017266;28;45264;-75
2022/07/28 08:53:34;;;;;;;;;6.50;6.50;;;;;23.63;38.50;100599.94;5016530;28;45443;-75
2022/07/28 08:56:12;;;;;;;;;5.50;5.50;;;;;23.80;38.06;100594.78;5016504;28;45466;-76
2022/07/28 08:58:38;;;;;;;;;7.25;7.25;;;;;23.92;38.49;100598.97;5016738;28;45360;-74
2022/07/28 09:01:05;;;;;;;;;5.50;5.50;;;;;24.14;38.01;100594.19;5016564;28;45478;-75
2022/07/28 09:03:31;;;;;;;;;4.25;4.25;;;;;24.14;36.75;100594.19;5015363;28;46555;-75
2022/07/28 09:05:57;;;;;;;;;6.00;6.00;;;;;24.14;37.48;100591.50;5016750;28;45228;-74
2022/07/28 09:08:23;;;;;;;;;5.75;5.50;;;;;24.12;36.45;100590.81;5016612;28;45255;-75
2022/07/28 09:10:50;;;;;;;;;4.25;4.25;;;;;24.16;37.08;100598.44;5017313;28;45345;-75
2022/07/28 09:13:16;;;;;;;;;8.00;8.00;;;;;24.26;36.87;100595.69;5016826;28;46472;-76
2022/07/28 09:15:45;;;;;;;;;5.75;5.75;;;;;24.35;37.34;100589.41;5016850;28;45390;-74
2022/07/28 09:18:12;;;;;;;;;5.00;5.00;;;;;24.35;37.32;100580.50;5018855;28;45240;-73
2022/07/28 09:20:39;;;;;;;;;4.50;4.50;;;;;24.42;36.53;100586.97;5016983;28;45602;-73
2022/07/28 09:23:06;;;;;;;;;7.00;7.00;;;;;24.44;36.16;100590.34;5018064;28;45412;-74
2022/07/28 09:25:32;;;;;;;;;6.50;6.50;;;;;24.44;36.27;100594.88;5016495;28;45276;-73
2022/07/28 09:28:14;;;;;;;;;5.00;5.00;;;;;24.54;37.03;100592.09;5016707;28;45441;-75
2022/07/28 09:30:42;;;;;;;;;6.75;6.75;;;;;24.69;36.23;100587.06;5016775;28;45492;-74
2022/07/28 09:33:22;;;;;;;;;6.00;6.00;;;;;24.85;35.74;100579.16;5016104;28;45405;-76
2022/07/28 09:35:48;;;;;;;;;5.75;5.75;;;;;24.95;36.27;100587.16;5016311;28;45347;-76
2022/07/28 09:38:13;;;;;;;;;3.75;3.75;;;;;25.14;35.89;100585.25;5016507;28;45222;-76
2022/07/28 09:40:40;;;;;;;;;4.00;4.00;;;;;25.17;35.30;100579.56;5017159;28;45587;-78
2022/07/28 09:43:08;;;;;;;;;4.75;4.75;;;;;25.28;35.16;100590.06;5015375;28;45460;-78
2022/07/28 09:45:33;;;;;;;;;5.00;5.00;;;;;25.36;35.18;100582.03;5015789;28;45502;-76
2022/07/28 09:48:09;;;;;;;;;4.25;4.25;;;;;25.56;34.66;100581.84;5016563;28;45300;-74
2022/07/28 09:50:35;;;;;;;;;5.25;5.25;;;;;25.67;35.02;100578.88;5015979;28;45594;-73
2022/07/28 09:53:19;;;;;;;;;6.00;4.50;;;;;25.81;34.31;100580.13;5015571;28;46422;-76
2022/07/28 09:55:58;;;;;;;;;3.50;3.50;;;;;25.94;33.13;100571.56;5015896;28;45329;-76
2022/07/28 09:58:25;;;;;;;;;5.25;5.25;;;;;26.01;32.98;100574.47;5014457;28;45490;-78
2022/07/28 10:01:21;;;;;;;;;4.75;4.75;;;;;26.19;32.44;100562.75;5016435;28;45432;-77
2022/07/28 10:03:56;;;;;;;;;5.00;5.00;;;;;26.41;32.63;100566.69;5015899;28;45581;-77
2022/07/28 10:06:33;;;;;;;;;4.00;4.00;;;;;26.63;32.42;100558.94;5016127;28;45332;-74
2022/07/28 10:09:06;;;;;;;;;4.00;4.00;;;;;26.83;31.84;100560.31;5015804;28;45498;-77
2022/07/28 10:11:32;;;;;;;;;2.00;2.00;;;;;26.82;31.39;100568.56;4998387;28;45912;-79
2022/07/28 10:13:58;;;;;;;;;4.50;4.50;;;;;26.85;31.25;100560.16;5047438;28;46927;-76
2022/07/28 10:16:32;;;;;;;;;2.50;2.50;;;;;26.97;30.89;100566.91;5015337;28;45397;-75
2022/07/28 10:19:00;;;;;;;;;4.50;4.50;;;;;27.11;31.00;100561.81;5015788;28;45448;-75
2022/07/28 10:21:26;;;;;;;;;3.25;3.00;;;;;27.17;31.01;100563.84;5015338;28;45566;-75
2022/07/28 10:23:54;;;;;;;;;6.00;6.00;;;;;27.35;30.31;100566.34;5014051;28;46326;-74
2022/07/28 10:26:32;;;;;;;;;3.25;3.25;;;;;27.45;30.78;100558.03;5017278;28;45672;-76
2022/07/28 10:29:03;;;;;;;;;6.00;6.00;;;;;27.52;31.01;100544.72;5015852;28;45421;-78
2022/07/28 10:31:49;;;;;;;;;6.50;6.50;;;;;27.75;30.05;100565.56;5014424;28;45189;-77
2022/07/28 10:34:30;;;;;;;;;4.75;4.75;;;;;27.89;30.18;100548.59;5015279;28;45544;-75
2022/07/28 10:37:00;;;;;;;;;3.00;3.00;;;;;27.97;30.54;100553.13;5015131;28;45410;-75
2022/07/28 10:39:40;;;;;;;;;3.00;3.00;;;;;28.11;30.07;100546.97;5015194;28;45341;-76
2022/07/28 10:42:10;;;;;;;;;4.50;4.50;;;;;28.27;30.19;100548.75;5015907;28;45305;-75
2022/07/28 10:44:37;;;;;;;;;4.50;3.50;;;;;28.30;29.64;100552.97;5013290;28;47128;-75
2022/07/28 10:47:08;;;;;;;;;3.25;3.25;;;;;28.42;29.67;100547.97;5015188;28;45422;-77
2022/07/28 10:49:35;;;;;;;;;5.00;5.00;;;;;28.64;29.54;100558.97;5047359;28;45324;-75
2022/07/28 10:52:01;;;;;;;;;5.50;5.50;;;;;28.60;28.99;100546.84;5015879;28;45338;-75
2022/07/28 10:54:29;;;;;;;;;1.50;1.50;;;;;28.65;29.14;100560.66;5012914;28;48365;-75
2022/07/28 10:57:04;;;;;;;;;4.50;4.50;;;;;28.53;29.00;100557.53;5015689;28;45447;-74
2022/07/28 11:00:00;;;;;;;;;6.00;6.00;;;;;28.57;29.46;100558.84;5015604;28;45392;-74
2022/07/28 11:02:47;;;;;;;;;4.00;4.00;;;;;28.51;29.11;100549.59;5015589;28;45431;-74
2022/07/28 11:05:38;;;;;;;;;5.75;1.25;;;;;28.54;29.06;100548.38;5013570;28;48437;-78
2022/07/28 11:08:15;;;;;;;;;3.75;3.75;;;;;28.60;28.77;100550.38;5013634;28;46322;-75
2022/07/28 11:10:47;;;;;;;;;2.25;2.25;;;;;28.71;28.99;100555.38;5014779;28;45316;-76
2022/07/28 11:13:34;;;;;;;;;2.50;2.00;;;;;29.07;27.83;100556.56;5016918;28;45266;-76
2022/07/28 11:16:12;;;;;;;;;5.25;5.25;;;;;29.39;28.60;100557.31;5022434;28;45451;-77
2022/07/28 11:19:02;;;;;;;;;4.75;4.75;;;;;29.56;27.43;100557.13;5021908;28;46005;-77
2022/07/28 11:21:27;;;;;;;;;4.25;4.00;;;;;29.62;27.78;100550.09;5021833;28;45433;-75
2022/07/28 11:23:55;;;;;;;;;3.00;3.00;;;;;29.43;27.19;100550.50;5018438;28;45466;-77
2022/07/28 11:26:23;;;;;;;;;3.50;2.25;;;;;29.20;26.94;100550.53;5016887;28;46134;-78
2022/07/28 11:29:03;;;;;;;;;4.75;4.75;;;;;28.96;27.37;100552.47;5017112;28;45377;-79
2022/07/28 11:31:43;;;;;;;;;3.25;2.50;;;;;28.72;27.69;100540.81;5015909;28;45474;-78